BOX295 EDDP-EDDF
Flight info
| Callsign | BOX295 |
|---|---|
| Flight time | 0h 33m |
| Altitude | 22000 |
| Route | ORTAG5E ORTAG T177 ODIPI/N0429F210 T157 KERAX KERAX5A |
| Aircraft | B77L/H-SDE1E2E3FGHIJ2J3J4J5M1RWXY/LB1D1 |
Departure
| Time | 2026-05-07 13:51 |
|---|---|
| Airport | Leipzig/Halle Airport (EDDP) |
Arrival
| Time | 2026-05-07 14:24 |
|---|---|
| Airport | Frankfurt Main Airport (EDDF) |
| Time | Latitude | Longitude | Altitude | Speed | Heading |
|---|---|---|---|---|---|
| 2026-05-07 13:34 | 51.40867 | 12.24508 | 470 ft | 0 kts | 266° |
| 2026-05-07 13:43 | 51.40868 | 12.24515 | 470 ft | 2 kts | 266° |
| 2026-05-07 13:43 | 51.40869 | 12.24546 | 467 ft | 3 kts | 266° |
| 2026-05-07 13:43 | 51.40871 | 12.24578 | 463 ft | 3 kts | 266° |
| 2026-05-07 13:44 | 51.40872 | 12.24610 | 463 ft | 3 kts | 266° |
| 2026-05-07 13:44 | 51.40873 | 12.24634 | 463 ft | 3 kts | 272° |
| 2026-05-07 13:44 | 51.40870 | 12.24661 | 463 ft | 3 kts | 315° |
| 2026-05-07 13:44 | 51.40855 | 12.24673 | 463 ft | 3 kts | 357° |
| 2026-05-07 13:45 | 51.40839 | 12.24674 | 463 ft | 1 kts | 355° |
| 2026-05-07 13:45 | 51.40838 | 12.24674 | 463 ft | 0 kts | 355° |
| 2026-05-07 13:46 | 51.40839 | 12.24674 | 463 ft | 1 kts | 355° |
| 2026-05-07 13:47 | 51.40896 | 12.24667 | 467 ft | 18 kts | 356° |
| 2026-05-07 13:47 | 51.41026 | 12.24651 | 469 ft | 19 kts | 355° |
| 2026-05-07 13:47 | 51.41102 | 12.24741 | 470 ft | 12 kts | 85° |
| 2026-05-07 13:47 | 51.41109 | 12.24871 | 476 ft | 12 kts | 85° |
| 2026-05-07 13:48 | 51.41115 | 12.25008 | 476 ft | 14 kts | 86° |
| 2026-05-07 13:48 | 51.41125 | 12.25204 | 476 ft | 21 kts | 85° |
| 2026-05-07 13:48 | 51.41136 | 12.25456 | 474 ft | 24 kts | 86° |
| 2026-05-07 13:48 | 51.41143 | 12.25550 | 478 ft | 4 kts | 75° |
| 2026-05-07 13:49 | 51.41167 | 12.25607 | 473 ft | 9 kts | 33° |
| 2026-05-07 13:49 | 51.41249 | 12.25620 | 480 ft | 14 kts | 354° |
| 2026-05-07 13:49 | 51.41353 | 12.25575 | 476 ft | 19 kts | 325° |
| 2026-05-07 13:49 | 51.41391 | 12.25404 | 478 ft | 0 kts | 265° |
| 2026-05-07 13:50 | 51.41390 | 12.25376 | 474 ft | 18 kts | 266° |
| 2026-05-07 13:50 | 51.41361 | 12.24745 | 475 ft | 94 kts | 266° |
| 2026-05-07 13:50 | 51.41297 | 12.23346 | 475 ft | 155 kts | 266° |
| 2026-05-07 13:51 | 51.41211 | 12.21393 | 641 ft | 183 kts | 269° |
| 2026-05-07 13:51 | 51.41136 | 12.19405 | 1260 ft | 182 kts | 268° |
| 2026-05-07 13:51 | 51.41041 | 12.17309 | 1787 ft | 193 kts | 269° |
| 2026-05-07 13:51 | 51.40953 | 12.15135 | 2389 ft | 201 kts | 268° |
| 2026-05-07 13:52 | 51.40864 | 12.12807 | 2763 ft | 219 kts | 269° |
| 2026-05-07 13:52 | 51.40817 | 12.10327 | 3436 ft | 221 kts | 271° |
| 2026-05-07 13:52 | 51.40765 | 12.07920 | 4343 ft | 214 kts | 266° |
| 2026-05-07 13:52 | 51.40578 | 12.05510 | 4834 ft | 227 kts | 264° |
| 2026-05-07 13:53 | 51.40375 | 12.02868 | 5108 ft | 252 kts | 265° |
| 2026-05-07 13:53 | 51.40203 | 11.99952 | 5204 ft | 272 kts | 267° |
| 2026-05-07 13:53 | 51.40047 | 11.97008 | 6074 ft | 267 kts | 267° |
| 2026-05-07 13:53 | 51.39915 | 11.94490 | 6812 ft | 267 kts | 267° |
| 2026-05-07 13:54 | 51.39759 | 11.91465 | 7455 ft | 275 kts | 266° |
| 2026-05-07 13:54 | 51.39609 | 11.88397 | 8201 ft | 278 kts | 266° |
| 2026-05-07 13:54 | 51.39455 | 11.85286 | 8967 ft | 283 kts | 266° |
| 2026-05-07 13:54 | 51.39297 | 11.82119 | 9708 ft | 288 kts | 266° |
| 2026-05-07 13:55 | 51.39134 | 11.78890 | 10344 ft | 295 kts | 266° |
| 2026-05-07 13:55 | 51.38962 | 11.75504 | 10589 ft | 317 kts | 266° |
| 2026-05-07 13:55 | 51.38866 | 11.71865 | 10746 ft | 335 kts | 276° |
| 2026-05-07 13:55 | 51.39341 | 11.68084 | 10928 ft | 357 kts | 286° |
| 2026-05-07 13:56 | 51.40013 | 11.64177 | 11448 ft | 369 kts | 287° |
| 2026-05-07 13:56 | 51.40687 | 11.60178 | 12252 ft | 375 kts | 285° |
| 2026-05-07 13:56 | 51.41350 | 11.56110 | 13187 ft | 379 kts | 285° |
| 2026-05-07 13:56 | 51.42003 | 11.51998 | 14096 ft | 383 kts | 284° |
| 2026-05-07 13:57 | 51.42649 | 11.47856 | 14962 ft | 385 kts | 284° |
| 2026-05-07 13:57 | 51.43291 | 11.43696 | 15656 ft | 391 kts | 284° |
| 2026-05-07 13:57 | 51.43943 | 11.39439 | 16475 ft | 394 kts | 284° |
| 2026-05-07 13:57 | 51.44605 | 11.35103 | 17316 ft | 398 kts | 284° |
| 2026-05-07 13:58 | 51.45265 | 11.30759 | 18018 ft | 404 kts | 284° |
| 2026-05-07 13:58 | 51.45927 | 11.26400 | 18686 ft | 410 kts | 284° |
| 2026-05-07 13:58 | 51.46607 | 11.21914 | 19284 ft | 416 kts | 284° |
| 2026-05-07 13:58 | 51.47289 | 11.17395 | 20008 ft | 417 kts | 284° |
| 2026-05-07 13:59 | 51.47964 | 11.12852 | 20670 ft | 418 kts | 282° |
| 2026-05-07 13:59 | 51.48116 | 11.08175 | 21055 ft | 428 kts | 263° |
| 2026-05-07 13:59 | 51.47278 | 11.03574 | 21659 ft | 433 kts | 244° |
| 2026-05-07 13:59 | 51.45812 | 10.99350 | 22105 ft | 437 kts | 240° |
| 2026-05-07 14:00 | 51.44262 | 10.95059 | 22036 ft | 451 kts | 240° |
| 2026-05-07 14:00 | 51.42669 | 10.90690 | 22050 ft | 456 kts | 239° |
| 2026-05-07 14:00 | 51.40824 | 10.86542 | 22036 ft | 457 kts | 231° |
| 2026-05-07 14:00 | 51.38709 | 10.82848 | 22050 ft | 456 kts | 224° |
| 2026-05-07 14:01 | 51.36334 | 10.79495 | 22042 ft | 456 kts | 221° |
| 2026-05-07 14:01 | 51.33920 | 10.76185 | 22042 ft | 456 kts | 221° |
| 2026-05-07 14:01 | 51.31510 | 10.72866 | 22032 ft | 457 kts | 221° |
| 2026-05-07 14:01 | 51.29108 | 10.69543 | 22024 ft | 457 kts | 221° |
| 2026-05-07 14:02 | 51.26709 | 10.66211 | 22042 ft | 457 kts | 221° |
| 2026-05-07 14:02 | 51.24309 | 10.62873 | 22034 ft | 457 kts | 221° |
| 2026-05-07 14:02 | 51.21910 | 10.59534 | 22027 ft | 458 kts | 221° |
| 2026-05-07 14:02 | 51.19512 | 10.56198 | 22030 ft | 457 kts | 221° |
| 2026-05-07 14:03 | 51.17547 | 10.53469 | 22031 ft | 457 kts | 221° |
| 2026-05-07 14:03 | 51.15144 | 10.50133 | 22038 ft | 458 kts | 221° |
| 2026-05-07 14:03 | 51.12773 | 10.46848 | 22036 ft | 457 kts | 221° |
| 2026-05-07 14:03 | 51.10374 | 10.43529 | 22030 ft | 456 kts | 221° |
| 2026-05-07 14:04 | 51.07967 | 10.40204 | 22027 ft | 456 kts | 221° |
| 2026-05-07 14:04 | 51.05580 | 10.36911 | 22029 ft | 455 kts | 221° |
| 2026-05-07 14:04 | 51.03184 | 10.33611 | 22033 ft | 455 kts | 221° |
| 2026-05-07 14:04 | 51.00784 | 10.30311 | 22033 ft | 455 kts | 221° |
| 2026-05-07 14:05 | 50.98389 | 10.27021 | 22032 ft | 455 kts | 221° |
| 2026-05-07 14:05 | 50.95991 | 10.23732 | 22032 ft | 455 kts | 221° |
| 2026-05-07 14:05 | 50.93631 | 10.20501 | 22039 ft | 454 kts | 221° |
| 2026-05-07 14:05 | 50.91249 | 10.17243 | 21993 ft | 446 kts | 221° |
| 2026-05-07 14:06 | 50.88926 | 10.14072 | 21902 ft | 434 kts | 221° |
| 2026-05-07 14:06 | 50.86667 | 10.10995 | 21804 ft | 421 kts | 221° |
| 2026-05-07 14:06 | 50.84516 | 10.08069 | 21399 ft | 402 kts | 221° |
| 2026-05-07 14:06 | 50.82430 | 10.05234 | 20939 ft | 387 kts | 221° |
| 2026-05-07 14:07 | 50.80423 | 10.02507 | 20479 ft | 373 kts | 221° |
| 2026-05-07 14:07 | 50.78485 | 9.99878 | 20030 ft | 361 kts | 221° |
| 2026-05-07 14:07 | 50.76596 | 9.97315 | 19579 ft | 352 kts | 221° |
| 2026-05-07 14:07 | 50.74749 | 9.94814 | 19092 ft | 350 kts | 221° |
| 2026-05-07 14:08 | 50.72895 | 9.92305 | 18555 ft | 352 kts | 222° |
| 2026-05-07 14:08 | 50.71028 | 9.89779 | 17947 ft | 353 kts | 222° |
| 2026-05-07 14:08 | 50.69195 | 9.87303 | 17301 ft | 350 kts | 221° |
| 2026-05-07 14:08 | 50.67342 | 9.84805 | 16680 ft | 347 kts | 222° |
| 2026-05-07 14:09 | 50.65506 | 9.82333 | 16059 ft | 345 kts | 222° |
| 2026-05-07 14:09 | 50.63691 | 9.79893 | 15437 ft | 342 kts | 221° |
| 2026-05-07 14:09 | 50.61887 | 9.77470 | 14856 ft | 339 kts | 222° |
| 2026-05-07 14:09 | 50.60127 | 9.75105 | 14293 ft | 336 kts | 222° |
| 2026-05-07 14:10 | 50.58334 | 9.72698 | 13684 ft | 333 kts | 222° |
| 2026-05-07 14:10 | 50.56601 | 9.70373 | 13044 ft | 330 kts | 222° |
| 2026-05-07 14:10 | 50.54860 | 9.68040 | 12437 ft | 327 kts | 222° |
| 2026-05-07 14:10 | 50.53135 | 9.65729 | 11812 ft | 324 kts | 222° |
| 2026-05-07 14:11 | 50.51424 | 9.63442 | 11292 ft | 318 kts | 222° |
| 2026-05-07 14:11 | 50.49728 | 9.61177 | 11127 ft | 323 kts | 222° |
| 2026-05-07 14:11 | 50.48060 | 9.58827 | 11035 ft | 317 kts | 231° |
| 2026-05-07 14:11 | 50.47000 | 9.55874 | 11040 ft | 310 kts | 255° |
| 2026-05-07 14:12 | 50.46424 | 9.52641 | 11043 ft | 312 kts | 256° |
| 2026-05-07 14:12 | 50.45819 | 9.49350 | 11049 ft | 312 kts | 255° |
| 2026-05-07 14:12 | 50.45206 | 9.46079 | 11039 ft | 312 kts | 255° |
| 2026-05-07 14:12 | 50.44592 | 9.42819 | 11032 ft | 311 kts | 255° |
| 2026-05-07 14:13 | 50.43977 | 9.39561 | 11038 ft | 314 kts | 255° |
| 2026-05-07 14:13 | 50.43348 | 9.36232 | 11041 ft | 318 kts | 255° |
| 2026-05-07 14:13 | 50.42721 | 9.32924 | 11027 ft | 314 kts | 255° |
| 2026-05-07 14:13 | 50.42090 | 9.29678 | 11025 ft | 308 kts | 251° |
| 2026-05-07 14:14 | 50.40977 | 9.26825 | 10878 ft | 311 kts | 225° |
| 2026-05-07 14:14 | 50.39323 | 9.24848 | 10728 ft | 293 kts | 217° |
| 2026-05-07 14:14 | 50.37705 | 9.23016 | 10352 ft | 284 kts | 218° |
| 2026-05-07 14:14 | 50.36127 | 9.21184 | 9920 ft | 278 kts | 218° |
| 2026-05-07 14:15 | 50.34587 | 9.19389 | 9456 ft | 273 kts | 218° |
| 2026-05-07 14:15 | 50.33075 | 9.17624 | 9004 ft | 270 kts | 219° |
| 2026-05-07 14:15 | 50.31574 | 9.15870 | 8569 ft | 268 kts | 219° |
| 2026-05-07 14:15 | 50.30070 | 9.14112 | 8165 ft | 272 kts | 218° |
| 2026-05-07 14:16 | 50.28546 | 9.12328 | 7724 ft | 276 kts | 218° |
| 2026-05-07 14:16 | 50.27004 | 9.10526 | 7296 ft | 277 kts | 218° |
| 2026-05-07 14:16 | 50.25493 | 9.08761 | 6872 ft | 271 kts | 218° |
| 2026-05-07 14:16 | 50.24008 | 9.07030 | 6449 ft | 262 kts | 219° |
| 2026-05-07 14:17 | 50.22567 | 9.05349 | 6000 ft | 256 kts | 219° |
| 2026-05-07 14:17 | 50.21149 | 9.03695 | 5535 ft | 254 kts | 218° |
| 2026-05-07 14:17 | 50.20197 | 9.02585 | 5261 ft | 253 kts | 218° |
| 2026-05-07 14:17 | 50.18789 | 9.00944 | 5012 ft | 252 kts | 218° |
| 2026-05-07 14:18 | 50.17384 | 8.99310 | 5012 ft | 253 kts | 218° |
| 2026-05-07 14:18 | 50.15961 | 8.97655 | 5000 ft | 256 kts | 218° |
| 2026-05-07 14:18 | 50.14704 | 8.95728 | 4990 ft | 252 kts | 242° |
| 2026-05-07 14:18 | 50.14068 | 8.93240 | 5004 ft | 250 kts | 254° |
| 2026-05-07 14:19 | 50.13504 | 8.90716 | 4996 ft | 245 kts | 251° |
| 2026-05-07 14:19 | 50.12913 | 8.88259 | 4990 ft | 239 kts | 251° |
| 2026-05-07 14:19 | 50.12337 | 8.85858 | 4991 ft | 237 kts | 251° |
| 2026-05-07 14:19 | 50.11761 | 8.83438 | 4707 ft | 240 kts | 251° |
| 2026-05-07 14:20 | 50.11186 | 8.81026 | 4368 ft | 237 kts | 251° |
| 2026-05-07 14:20 | 50.10615 | 8.78631 | 4008 ft | 231 kts | 251° |
| 2026-05-07 14:20 | 50.10070 | 8.76356 | 3670 ft | 217 kts | 252° |
| 2026-05-07 14:20 | 50.09561 | 8.74219 | 3380 ft | 206 kts | 252° |
| 2026-05-07 14:21 | 50.09063 | 8.72126 | 3169 ft | 207 kts | 251° |
| 2026-05-07 14:21 | 50.08687 | 8.70552 | 2900 ft | 203 kts | 251° |
| 2026-05-07 14:21 | 50.08207 | 8.68550 | 2572 ft | 191 kts | 251° |
| 2026-05-07 14:21 | 50.07792 | 8.66808 | 2317 ft | 182 kts | 252° |
| 2026-05-07 14:22 | 50.07216 | 8.64390 | 1978 ft | 173 kts | 251° |
| 2026-05-07 14:22 | 50.06851 | 8.62865 | 1779 ft | 165 kts | 252° |
| 2026-05-07 14:22 | 50.06457 | 8.61214 | 1533 ft | 158 kts | 251° |
| 2026-05-07 14:22 | 50.06089 | 8.59673 | 1326 ft | 154 kts | 251° |
| 2026-05-07 14:23 | 50.05728 | 8.58168 | 1102 ft | 151 kts | 251° |
| 2026-05-07 14:23 | 50.05361 | 8.56671 | 829 ft | 151 kts | 249° |
| 2026-05-07 14:23 | 50.05010 | 8.55176 | 659 ft | 150 kts | 249° |
| 2026-05-07 14:23 | 50.04648 | 8.53644 | 460 ft | 152 kts | 249° |
| 2026-05-07 14:24 | 50.04295 | 8.52170 | 357 ft | 139 kts | 249° |
| 2026-05-07 14:24 | 50.04023 | 8.51031 | 329 ft | 67 kts | 249° |
| 2026-05-07 14:24 | 50.03910 | 8.50573 | 325 ft | 34 kts | 244° |
| 2026-05-07 14:24 | 50.03787 | 8.50312 | 322 ft | 19 kts | 221° |
| 2026-05-07 14:25 | 50.03688 | 8.50195 | 321 ft | 14 kts | 202° |
| 2026-05-07 14:25 | 50.03632 | 8.50222 | 327 ft | 9 kts | 122° |
| 2026-05-07 14:25 | 50.03637 | 8.50317 | 325 ft | 9 kts | 70° |
| 2026-05-07 14:25 | 50.03658 | 8.50409 | 329 ft | 9 kts | 69° |
| 2026-05-07 14:26 | 50.03680 | 8.50500 | 328 ft | 9 kts | 70° |
| 2026-05-07 14:26 | 50.03702 | 8.50595 | 332 ft | 10 kts | 70° |
| 2026-05-07 14:26 | 50.03727 | 8.50698 | 333 ft | 11 kts | 68° |
| 2026-05-07 14:26 | 50.03754 | 8.50808 | 333 ft | 11 kts | 69° |
| 2026-05-07 14:27 | 50.03761 | 8.50931 | 336 ft | 12 kts | 108° |
| 2026-05-07 14:27 | 50.03726 | 8.51049 | 349 ft | 12 kts | 116° |
| 2026-05-07 14:27 | 50.03690 | 8.51166 | 358 ft | 12 kts | 116° |
| 2026-05-07 14:27 | 50.03653 | 8.51283 | 357 ft | 12 kts | 116° |
| 2026-05-07 14:28 | 50.03617 | 8.51398 | 362 ft | 12 kts | 116° |
| 2026-05-07 14:28 | 50.03580 | 8.51516 | 366 ft | 13 kts | 116° |
| 2026-05-07 14:28 | 50.03529 | 8.51674 | 364 ft | 20 kts | 116° |
| 2026-05-07 14:28 | 50.03522 | 8.51932 | 358 ft | 17 kts | 84° |
| 2026-05-07 14:29 | 50.03531 | 8.52048 | 357 ft | 0 kts | 83° |
| 2026-05-07 14:29 | 50.03533 | 8.52071 | 357 ft | 4 kts | 84° |
| 2026-05-07 14:29 | 50.03541 | 8.52181 | 352 ft | 9 kts | 83° |
| 2026-05-07 14:30 | 50.03545 | 8.52224 | 352 ft | 9 kts | 83° |
| 2026-05-07 14:30 | 50.03562 | 8.52374 | 344 ft | 16 kts | 90° |
| 2026-05-07 14:30 | 50.03510 | 8.52509 | 349 ft | 18 kts | 103° |
| 2026-05-07 14:30 | 50.03526 | 8.52720 | 350 ft | 18 kts | 70° |
| 2026-05-07 14:31 | 50.03576 | 8.52935 | 350 ft | 25 kts | 70° |
| 2026-05-07 14:31 | 50.03604 | 8.53053 | 353 ft | 15 kts | 69° |
| 2026-05-07 14:31 | 50.03636 | 8.53138 | 354 ft | 6 kts | 32° |
| 2026-05-07 14:31 | 50.03696 | 8.53107 | 355 ft | 2 kts | 336° |
| 2026-05-07 14:32 | 50.03706 | 8.53101 | 354 ft | 2 kts | 340° |
| 2026-05-07 14:32 | 50.03716 | 8.53096 | 355 ft | 0 kts | 340° |
| 2026-05-07 14:32 | 50.03717 | 8.53095 | 355 ft | 0 kts | 340° |
| 2026-05-07 14:32 | 50.03718 | 8.53094 | 355 ft | 0 kts | 340° |
| 2026-05-07 14:33 | 50.03719 | 8.53094 | 355 ft | 0 kts | 339° |